Statewide Weather Sensors

Route Weather Station Name Milepost Date / Time Surface Status Surface Temp Precip Intensity Wind Avg Wind Gust Dir Dewpoint Humidity Air Temp Visibility
I 25 Wyo Hill 3.52 Sep 25, 2020 04:10 am     None None 14 mph 17 mph NW 24.8°F 25% 60.8°F > 1/2 mi
I 25 Whitaker 30.2 Sep 25, 2020 04:10 am Dry 54.5°F None None 11 mph 14 mph W 26.6°F 28% 59.0°F > 1/2 mi
I 25 Bear Creek 46.77 Sep 25, 2020 04:10 am Dry 58.3°F None None 11 mph 14 mph NW 33.8°F 51% 51.8°F > 1/2 mi
I 25 Bordeaux 70.8 Sep 25, 2020 04:10 am Dry 59.2°F None   4 mph 8 mph NW 35.6°F 47% 55.4°F  
I 25 Coleman 98.7 Sep 25, 2020 04:10 am Dry 57.4°F None None 10 mph 15 mph NW 35.6°F 46% 55.4°F > 1/2 mi
I 25 Platte/Converse County Line 119.9 Apr 28, 2020 01:32 pm                      
I 25 Deer Creek 164.2 Sep 25, 2020 04:10 am Dry 56.3°F None None 1 mph 4 mph N       > 1/2 mi
I 25 Hat Six 181.67 Sep 25, 2020 04:10 am Dry 55.9°F None None 1 mph 4 mph N 35.6°F 62% 48.2°F > 1/2 mi
I 25 F Street Hill 189.51 Sep 25, 2020 04:10 am Dry 59.0°F None None 1 mph 4 mph NE 35.6°F 51% 51.8°F > 1/2 mi
I 25 Twenty Mile Hill 207.2 Sep 25, 2020 04:10 am     None   1 mph 2 mph SW 35.6°F 55% 50.0°F  
I 25 Smokey Gap 228.58 Sep 25, 2020 04:10 am Dry 57.7°F None None 5 mph 7 mph W 35.6°F 51% 53.6°F > 1/2 mi
I 25 Tisdale 238.87 Sep 25, 2020 04:11 am Dry 58.3°F None None 7 mph 8 mph W 37.4°F 50% 55.4°F > 1/2 mi
I 25 I-25 Divide 267.3 Sep 25, 2020 04:10 am N/A   None None 2 mph 3 mph NW 37.4°F 53% 53.6°F > 1/2 mi
I 80 Evanston POE .06 Sep 25, 2020 04:10 am Dry 43.5°F None   0 mph 6 mph W 23.0°F 51% 39.2°F > 1/2 mi
I 80 Evanston 4.2 Sep 25, 2020 04:10 am Dry 79.2°F None None 1 mph 3 mph N 28.4°F 55% 42.8°F > 1/2 mi
I 80 Bear River Drive 6.94 Sep 25, 2020 04:10 am Dry 43.3°F None   0 mph 4 mph E 24.8°F 64% 35.6°F > 1/2 mi
I 80 Painter 10.16 Sep 25, 2020 04:10 am Dry 49.3°F None None 7 mph 9 mph NW 24.8°F 53% 41.0°F > 1/2 mi
I 80 First Divide 13.86 Sep 25, 2020 04:10 am     None   5 mph 7 mph SW 26.6°F 43% 46.4°F  
I 80 US 189 Interchange 17.66 Sep 25, 2020 04:10 am Dry 54.0°F None None 9 mph 13 mph SW 26.6°F 48% 46.4°F > 1/2 mi
I 80 Coal Road 20.95 Sep 25, 2020 04:10 am Dry 56.5°F None None 2 mph 6 mph SW 24.8°F 31% 53.6°F > 1/2 mi
I 80 Leroy 23.35 Sep 25, 2020 04:10 am Dry 52.2°F None None 7 mph 9 mph S 24.8°F 45% 44.6°F > 1/2 mi
I 80 French 27.6 Sep 25, 2020 04:10 am Dry 55.8°F None None 8 mph 11 mph SW 24.8°F 32% 53.6°F > 1/2 mi
I 80 Church Butte 52.65 Sep 25, 2020 04:10 am N/A   None None 5 mph 7 mph S 24.8°F 33% 53.6°F > 1/2 mi
I 80 Peru Hill 82.31 Sep 25, 2020 04:10 am     None   2 mph 4 mph SW 17.6°F 32% 44.6°F  
I 80 Green River Tunnel 90.5 Sep 25, 2020 04:10 am Trace Moisture 56.7°F None None 1 mph 5 mph SW 24.8°F 42% 48.2°F > 1/2 mi
I 80 Rock Springs West 97.9 Sep 25, 2020 04:10 am Dry 52.5°F None None 1 mph 4 mph E 26.6°F 53% 42.8°F > 1/2 mi
I 80 Baxter Road 111.5 Sep 25, 2020 04:10 am     None None 53 mph 2 mph N 26.6°F 50% 42.8°F > 1/2 mi
I 80 Mile Marker 124.5 124.5 Sep 25, 2020 04:10 am N/A   None None 1 mph 2 mph E 24.8°F 53% 41.0°F > 1/2 mi
I 80 Point of Rocks 129.8 Sep 25, 2020 04:10 am N/A   None None 0 mph 1 mph S 24.8°F 66% 35.6°F > 1/2 mi
I 80 Bitter Creek 141.83 Sep 01, 2020 03:14 pm                      
I 80 Tipton 156.72 Sep 25, 2020 04:10 am Dry 55.2°F None None 1 mph 1 mph SW 23.0°F 33% 51.8°F > 1/2 mi
I 80 Continental Divide 184.3 Sep 25, 2020 04:10 am N/A   None None 5 mph 6 mph S 24.8°F 34% 51.8°F > 1/2 mi
I 80 Sinclair 221.7 Sep 25, 2020 04:10 am N/A   None None 2 mph 5 mph S 23.0°F 36% 48.2°F > 1/2 mi
I 80 Walcott Junction 234.66 Sep 25, 2020 04:10 am N/A   None None 12 mph 14 mph S 24.8°F 38% 48.2°F > 1/2 mi
I 80 Dana Ridge 244.8 Sep 25, 2020 04:10 am Dry 55.8°F None None 7 mph 12 mph S 21.2°F 24% 59.0°F > 1/2 mi
I 80 Mile Marker 249.1 249.1 Sep 25, 2020 04:10 am Dry 55.4°F None None 16 mph 18 mph SW 21.2°F 24% 59.0°F > 1/2 mi
I 80 Halleck Ridge 252.16 Sep 25, 2020 04:10 am N/A   None None 17 mph 20 mph S 23.0°F 22% 60.8°F > 1/2 mi
I 80 Elk Mountain 256.17 Sep 25, 2020 04:10 am Trace Moisture 52.5°F None None 4 mph 7 mph NE 24.8°F 40% 48.2°F > 1/2 mi
I 80 County Road 402 262 Sep 25, 2020 04:10 am Dry 54.5°F None None 16 mph 20 mph SE 23.0°F 30% 53.6°F > 1/2 mi
I 80 Wagonhound 266.58 Sep 25, 2020 04:10 am Dry 51.1°F None None 6 mph 10 mph SW 24.8°F 35% 50.0°F > 1/2 mi
I 80 Foote Creek 269.5 Sep 25, 2020 04:10 am Dry 55.4°F None None 10 mph 14 mph S 23.0°F 26% 57.2°F > 1/2 mi
I 80 Arlington 271.8 Sep 25, 2020 04:10 am Dry 57.4°F None None 11 mph 14 mph W 23.0°F 23% 59.0°F > 1/2 mi
I 80 Arlington East 273.85 Sep 25, 2020 04:10 am Dry 57.2°F None None 9 mph 14 mph SW 21.2°F 23% 59.0°F > 1/2 mi
I 80 Cooper Cove 279.36 Sep 25, 2020 04:10 am Dry 51.4°F None None 8 mph 14 mph E 24.8°F 30% 55.4°F > 1/2 mi
I 80 Strouss Hill 283.75 Sep 25, 2020 04:10 am Dry 56.1°F None None 4 mph 6 mph S 23.0°F 22% 62.6°F > 1/2 mi
I 80 Quealy Dome 289.5 Sep 25, 2020 04:10 am Dry 55.0°F None None 6 mph 9 mph W 23.0°F 30% 55.4°F > 1/2 mi
I 80 Herrick Lane 297.66 Sep 25, 2020 04:10 am Dry 48.9°F None None 9 mph 12 mph S 26.6°F 50% 44.6°F > 1/2 mi
I 80 Summit East 325.8 Sep 25, 2020 04:10 am Dry 50.9°F None None 7 mph 9 mph SW 21.2°F 31% 51.8°F > 1/2 mi
I 80 Vedauwoo 329.4 Sep 25, 2020 04:10 am Dry 51.8°F None None 9 mph 11 mph SW 23.0°F 29% 53.6°F > 1/2 mi
I 80 Lone Tree 333.32 Sep 25, 2020 04:10 am Dry 52.9°F None None 12 mph 14 mph SW 23.0°F 27% 55.4°F > 1/2 mi
I 80 Buford East 336.1 Sep 25, 2020 04:10 am Dry 53.2°F None None 9 mph 11 mph SW 24.8°F 33% 51.8°F > 1/2 mi
I 80 Remount Road 340.5 Sep 25, 2020 04:10 am N/A   None None 9 mph 11 mph SW 24.8°F 29% 55.4°F > 1/2 mi
I 80 Otto 347.69 Sep 25, 2020 04:10 am Dry 58.8°F None None 14 mph 17 mph W 23.0°F 23% 62.6°F > 1/2 mi
I 80 MP 353 353 Sep 25, 2020 04:10 am Dry 61.0°F None None 17 mph 21 mph W 24.8°F 25% 60.8°F > 1/2 mi
I 80 Cheyenne East 373 Sep 25, 2020 04:10 am Dry 60.4°F None None 7 mph 8 mph W 26.6°F 27% 60.8°F > 1/2 mi
I 90 Montana State Line .1 Sep 24, 2020 07:46 pm                      
I 90 Pompey Creek 35.3 Sep 25, 2020 04:10 am N/A   None None 4 mph 6 mph W 32.0°F 36% 42.8°F > 1/2 mi
I 90 Sheridan/Johnson County Line 41.33 Sep 25, 2020 04:10 am Wet 60.4°F None None 1 mph 6 mph N 32.0°F 41% 41.0°F > 1/2 mi
I 90 Piney Creek Interchange 44.7 Sep 25, 2020 04:10 am Dry 59.4°F None None 5 mph 6 mph S 32.0°F 40% 55.4°F > 1/2 mi
I 90 Kearny Divide 45.33 Sep 25, 2020 04:10 am Dry   None None 3 mph 9 mph SE 32.0°F 6% 41.0°F > 1/2 mi
I 90 Indian Creek Road 83.3 Sep 25, 2020 04:10 am Dry 58.5°F None None 6 mph 7 mph NE 26.6°F 32% 55.4°F > 1/2 mi
I 90 Dead Horse 91.5 Sep 25, 2020 04:10 am Dry 60.4°F None None 2 mph 3 mph E 41.0°F 70% 50.0°F > 1/2 mi
I 90 Mile Marker 108 108 Sep 25, 2020 04:10 am N/A   None None 4 mph 7 mph NE 30.2°F 42% 51.8°F > 1/2 mi
I 90 Inyan Kara 170.5 Sep 25, 2020 04:10 am Dry 57.2°F None   5 mph 9 mph N 17.6°F 23% 53.6°F  
I 90 Beulah 205.9 Sep 25, 2020 04:10 am Dry 59.9°F None None 6 mph 7 mph W 32.0°F 44% 53.6°F > 1/2 mi
US 14 Ucross 27.83 Sep 25, 2020 04:10 am Dry 59.4°F None None 0 mph 0 mph SE 42.8°F 74% 51.8°F N/A
US 14 Granite Pass 38.95 Sep 25, 2020 04:10 am N/A   Light Slight 6 mph 11 mph NE 26.6°F 45% 46.4°F > 1/2 mi
US 16 Big Horn County Line 44.01 Sep 25, 2020 04:10 am Dry 54.7°F None None 1 mph 2 mph E 24.8°F 43% 46.4°F > 1/2 mi
US 191 Farson 40.45 Sep 25, 2020 04:10 am N/A   None None 1 mph 2 mph NE 21.2°F 48% 39.2°F > 1/2 mi
US 191 Warren Bridge 119.9 Sep 25, 2020 04:10 am Dry 47.1°F None None 4 mph 5 mph SW 24.8°F 71% 32.0°F > 1/2 mi
US 20 Natrona 30 Sep 25, 2020 04:10 am Dry 55.0°F None   5 mph 8 mph W 35.6°F 67% 44.6°F > 1/2 mi
US 20 Hiland 57.4 Sep 25, 2020 04:10 am Dry 55.4°F None None 12 mph 14 mph E 35.6°F 60% 48.2°F > 1/2 mi
US 20 Van Tassell 57.85 Sep 25, 2020 04:10 am Dry 55.9°F None None 4 mph 12 mph N 32.0°F 48% 50.0°F > 1/2 mi
US 26 Wind River Lake 26.05 Sep 25, 2020 04:10 am Dry 48.6°F None None 2 mph 4 mph NE       > 1/2 mi
US 287 Pumpkin Vine 420.4 Sep 25, 2020 04:10 am N/A   None None 6 mph 8 mph NW 19.4°F 21% 59.0°F > 1/2 mi
US 30 Sage Junction 34 Sep 25, 2020 04:10 am N/A   None None 6 mph 6 mph SE       > 1/2 mi
US 30 Nugget Canyon 39.7 Sep 25, 2020 04:10 am     None None 4 mph 5 mph SE 21.2°F 63% 32.0°F > 1/2 mi
US 85 Gun Barrel 46.8 Sep 25, 2020 04:10 am Dry 57.7°F None None 9 mph 11 mph W 33.8°F 48% 51.8°F  
US 85 Four Corners 247.2 Sep 25, 2020 04:10 am Dry 52.3°F None None 7 mph 21 mph S 23.0°F 32% 51.8°F > 1/2 mi
WY 120 Meeteetse 61.5 Sep 25, 2020 04:10 am N/A   None None 12 mph 13 mph NW 28.4°F 44% 50.0°F > 1/2 mi
WY 210 Wildcat Trail 21.52 Sep 25, 2020 04:10 am Dry 56.5°F None None 12 mph 13 mph SW 23.0°F 24% 59.0°F > 1/2 mi
WY 210 Hynds Lodge Road 24.55 Sep 25, 2020 04:10 am N/A   None None 4 mph 6 mph W 23.0°F 26% 57.2°F > 1/2 mi
WY 22 Teton Pass 11.2 Sep 25, 2020 04:10 am Dry 51.1°F None None 1 mph 4 mph W 33.8°F 59% 46.4°F > 1/2 mi
WY 220 Pathfinder Hill 80.1 Sep 08, 2020 02:36 pm                      
WY 230 Skyline 230 113.2 Sep 25, 2020 04:10 am Dry 48.7°F None None 11 mph 16 mph SE 23.0°F 39% 46.4°F > 1/2 mi
WY 258 Outer Drive 13.77 Sep 25, 2020 04:10 am Dry 54.3°F None None 2 mph 5 mph NW 35.6°F 57% 50.0°F > 1/2 mi
WY 28 New South Pass 41.4 Sep 25, 2020 04:10 am Dry 48.7°F None None 5 mph 6 mph W 21.2°F 31% 51.8°F > 1/2 mi
WY 28 Lower Red Canyon 59.71 Sep 25, 2020 04:10 am Dry 53.6°F None None 6 mph 9 mph SE 24.8°F 26% 59.0°F > 1/2 mi
WY 296 Chief Joseph 32.96 Sep 25, 2020 04:10 am Wet 43.2°F None None 8 mph 9 mph SE 30.2°F 74% 37.4°F > 1/2 mi
WY 372 Shute Creek 34 Sep 25, 2020 04:10 am N/A   None None 4 mph 7 mph N   86%    
WY 387 Pine Tree Junction 131.79 Sep 25, 2020 04:10 am N/A   None   8 mph 9 mph N 33.8°F 52% 51.8°F  
WY 487 Shirley Rim 37 Sep 25, 2020 04:10 am Dry 52.2°F None None 3 mph 5 mph S 24.8°F 35% 50.0°F > 1/2 mi
WY 59 Belle Fourche 87 Sep 25, 2020 04:10 am Dry 54.0°F None   4 mph 5 mph NW 35.6°F 64% 46.4°F  
WY 789 Beaver Rim 48.1 Sep 25, 2020 04:10 am     None None 0 mph 0 mph N 17.6°F 21% 55.4°F > 1/2 mi

Contact Us
Copyright 2020 Disclaimer Privacy Policy Media